createdAt,value
2018-04-30T00:01:28.637Z,27.63
2018-04-30T00:03:56.140Z,33.50
2018-04-30T00:06:23.685Z,30.77
2018-04-30T00:08:51.181Z,30.70
2018-04-30T00:11:18.719Z,30.23
2018-04-30T00:13:46.227Z,22.43
2018-04-30T00:16:16.447Z,29.97
2018-04-30T00:18:43.977Z,32.37
2018-04-30T00:21:11.535Z,32.40
2018-04-30T00:23:39.988Z,29.10
2018-04-30T00:26:07.527Z,44.20
2018-04-30T00:28:35.835Z,38.63
2018-04-30T00:31:03.368Z,26.43
2018-04-30T00:33:30.975Z,26.97
2018-04-30T00:35:59.186Z,27.03
2018-04-30T00:38:26.727Z,35.83
2018-04-30T00:40:54.230Z,31.17
2018-04-30T00:43:21.766Z,27.60
2018-04-30T00:45:50.039Z,35.13
2018-04-30T00:48:17.584Z,27.53
2018-04-30T00:50:45.074Z,26.77
2018-04-30T00:53:12.599Z,33.23
2018-04-30T00:55:40.100Z,31.33
2018-04-30T00:58:07.635Z,28.07
2018-04-30T01:00:35.146Z,29.53
2018-04-30T01:03:02.690Z,39.40
2018-04-30T01:05:30.192Z,29.57
2018-04-30T01:07:57.752Z,29.90
2018-04-30T01:10:25.259Z,25.47
2018-04-30T01:12:53.687Z,36.03
2018-04-30T01:15:21.227Z,38.53
2018-04-30T01:17:48.730Z,29.90
2018-04-30T01:20:16.261Z,34.73
2018-04-30T01:22:43.757Z,30.77
2018-04-30T01:25:11.304Z,40.63
2018-04-30T01:27:38.801Z,38.00
2018-04-30T01:30:06.358Z,38.20
2018-04-30T01:32:33.853Z,29.33
2018-04-30T01:35:01.391Z,41.37
2018-04-30T01:37:28.887Z,32.57
2018-04-30T01:39:56.870Z,32.37
2018-04-30T01:42:24.374Z,32.43
2018-04-30T01:44:51.865Z,33.83
2018-04-30T01:47:19.394Z,36.07
2018-04-30T01:49:46.902Z,45.73
2018-04-30T01:52:14.436Z,31.87
2018-04-30T01:54:41.952Z,36.00
2018-04-30T01:57:09.488Z,35.23
2018-04-30T01:59:37.012Z,30.53
2018-04-30T02:02:04.544Z,36.60
2018-04-30T02:04:32.055Z,36.47
2018-04-30T02:06:59.610Z,31.67
2018-04-30T02:09:27.881Z,36.93
2018-04-30T02:11:55.417Z,39.10
2018-04-30T02:14:22.943Z,37.00
2018-04-30T02:16:50.479Z,33.03
2018-04-30T02:19:18.743Z,31.77
2018-04-30T02:21:47.041Z,34.47
2018-04-30T02:24:14.539Z,35.83
2018-04-30T02:26:42.083Z,43.97
2018-04-30T02:29:09.575Z,35.03
2018-04-30T02:31:37.127Z,33.20
2018-04-30T02:34:05.398Z,29.97
2018-04-30T02:36:32.938Z,31.13
2018-04-30T02:39:00.434Z,33.13
2018-04-30T02:41:27.942Z,38.30
2018-04-30T02:43:55.501Z,35.60
2018-04-30T02:46:23.003Z,32.70
2018-04-30T02:48:50.566Z,29.83
2018-04-30T02:51:18.284Z,36.67
2018-04-30T02:53:45.819Z,38.10
2018-04-30T02:56:14.082Z,37.80
2018-04-30T02:58:42.497Z,32.37
2018-04-30T03:01:09.998Z,37.80
2018-04-30T03:03:37.550Z,31.30
2018-04-30T03:06:05.055Z,26.80
2018-04-30T03:08:32.613Z,28.87
2018-04-30T03:11:00.893Z,38.40
2018-04-30T03:13:28.451Z,29.83
2018-04-30T03:15:55.975Z,33.03
2018-04-30T03:18:23.522Z,35.83
2018-04-30T03:20:51.027Z,34.10
2018-04-30T03:23:18.531Z,32.10
2018-04-30T03:25:46.069Z,36.13
2018-04-30T03:28:13.560Z,30.03
2018-04-30T03:30:41.111Z,28.53
2018-04-30T03:33:08.611Z,24.97
2018-04-30T03:35:36.938Z,34.13
2018-04-30T03:38:04.447Z,28.00
2018-04-30T03:40:31.972Z,26.77
2018-04-30T03:42:59.493Z,24.73
2018-04-30T03:45:27.027Z,20.00
2018-04-30T03:47:54.530Z,23.53
2018-04-30T03:50:22.068Z,37.97
2018-04-30T03:52:49.587Z,31.00
2018-04-30T03:55:17.152Z,25.50
2018-04-30T03:57:45.430Z,29.63
2018-04-30T04:00:25.591Z,34.67
2018-04-30T04:03:05.678Z,27.30
2018-04-30T04:05:44.876Z,26.23
2018-04-30T04:08:13.133Z,19.03
2018-04-30T04:10:40.674Z,32.80
2018-04-30T04:13:08.174Z,26.53
2018-04-30T04:15:35.713Z,19.10
2018-04-30T04:18:03.974Z,33.50
2018-04-30T04:20:31.502Z,29.07
2018-04-30T04:22:59.007Z,28.20
2018-04-30T04:25:26.538Z,24.57
2018-04-30T04:27:54.039Z,17.00
2018-04-30T04:30:22.345Z,28.93
2018-04-30T04:32:49.845Z,19.23
2018-04-30T04:35:17.374Z,30.07
2018-04-30T04:37:44.874Z,27.63
2018-04-30T04:40:13.276Z,32.90
2018-04-30T04:42:40.781Z,20.20
2018-04-30T04:45:08.318Z,24.30
2018-04-30T04:47:35.836Z,32.47
2018-04-30T04:50:03.372Z,26.87
2018-04-30T04:52:30.932Z,23.57
2018-04-30T04:54:58.470Z,46.53
2018-04-30T04:57:25.970Z,27.90
2018-04-30T04:59:54.284Z,34.20
2018-04-30T05:02:21.871Z,27.53
2018-04-30T05:04:49.337Z,33.73
2018-04-30T05:07:16.841Z,26.43
2018-04-30T05:09:44.382Z,29.30
2018-04-30T05:12:11.900Z,31.30
2018-04-30T05:14:39.505Z,31.80
2018-04-30T05:17:07.005Z,30.63
2018-04-30T05:19:34.547Z,24.13
2018-04-30T05:22:02.047Z,30.20
2018-04-30T05:24:29.582Z,25.13
2018-04-30T05:26:57.077Z,30.90
2018-04-30T05:29:24.627Z,24.10
2018-04-30T05:31:52.136Z,34.27
2018-04-30T05:34:19.679Z,36.67
2018-04-30T05:36:47.967Z,21.27
2018-04-30T05:39:15.508Z,28.30
2018-04-30T05:41:43.010Z,34.57
2018-04-30T05:44:10.538Z,29.37
2018-04-30T05:46:38.900Z,26.73
2018-04-30T05:49:06.470Z,31.13
2018-04-30T05:51:34.780Z,30.97
2018-04-30T05:54:02.322Z,20.90
2018-04-30T05:56:29.935Z,31.10
2018-04-30T05:58:57.556Z,21.23
2018-04-30T06:01:26.250Z,22.50
2018-04-30T06:03:53.793Z,17.20
2018-04-30T06:06:21.291Z,33.23
2018-04-30T06:08:49.105Z,29.57
2018-04-30T06:11:16.615Z,29.37
2018-04-30T06:13:44.244Z,25.60
2018-04-30T06:16:11.882Z,33.50
2018-04-30T06:18:39.383Z,29.30
2018-04-30T06:21:06.926Z,26.90
2018-04-30T06:23:34.417Z,28.43
2018-04-30T06:26:02.037Z,28.00
2018-04-30T06:28:29.539Z,29.63
2018-04-30T06:30:57.067Z,28.57
2018-04-30T06:33:24.590Z,24.40
2018-04-30T06:35:53.227Z,25.53
2018-04-30T06:38:20.690Z,31.13
2018-04-30T06:40:48.221Z,28.77
2018-04-30T06:43:15.721Z,26.70
2018-04-30T06:45:43.250Z,30.60
2018-04-30T06:48:10.754Z,28.13
2018-04-30T06:50:39.067Z,20.23
2018-04-30T06:53:06.567Z,26.60
2018-04-30T06:55:34.095Z,31.37
2018-04-30T06:58:01.621Z,18.17
2018-04-30T07:00:29.959Z,35.50
2018-04-30T07:02:57.488Z,26.33
2018-04-30T07:05:25.039Z,31.87
2018-04-30T07:07:52.539Z,30.07
2018-04-30T07:10:20.071Z,21.43
2018-04-30T07:12:47.643Z,33.83
2018-04-30T07:15:15.330Z,18.00
2018-04-30T07:17:42.873Z,32.27
2018-04-30T07:20:10.536Z,26.67
2018-04-30T07:22:38.784Z,23.90
2018-04-30T07:25:06.289Z,21.80
2018-04-30T07:27:33.853Z,25.80
2018-04-30T07:30:01.343Z,30.63
2018-04-30T07:32:28.904Z,24.10
2018-04-30T07:34:58.173Z,24.13
2018-04-30T07:37:26.438Z,15.83
2018-04-30T07:39:53.979Z,26.53
2018-04-30T07:42:21.502Z,15.67
2018-04-30T07:44:49.038Z,29.40
2018-04-30T07:47:18.217Z,18.13
2018-04-30T07:49:45.732Z,19.67
2018-04-30T07:52:13.284Z,21.87
2018-04-30T07:54:40.854Z,18.90
2018-04-30T07:57:08.394Z,18.13
2018-04-30T07:59:36.708Z,16.50
2018-04-30T08:02:04.244Z,15.77
2018-04-30T08:04:31.817Z,21.40
2018-04-30T08:06:59.310Z,14.73
2018-04-30T08:09:26.938Z,23.00
2018-04-30T08:11:54.604Z,15.73
2018-04-30T08:14:22.323Z,7.80
2018-04-30T08:16:49.861Z,11.53
2018-04-30T08:19:18.152Z,7.20
2018-04-30T08:21:46.495Z,9.60
2018-04-30T08:24:14.009Z,10.60
2018-04-30T08:26:41.553Z,9.67
2018-04-30T08:29:09.056Z,13.30
2018-04-30T08:31:36.593Z,7.43
2018-04-30T08:34:04.119Z,11.90
2018-04-30T08:36:32.477Z,6.50
2018-04-30T08:38:59.934Z,7.20
2018-04-30T08:41:27.494Z,8.90
2018-04-30T08:43:54.988Z,12.07
2018-04-30T08:46:22.570Z,13.07
2018-04-30T08:48:50.138Z,8.10
2018-04-30T08:51:17.854Z,15.00
2018-04-30T08:53:45.346Z,3.00
2018-04-30T08:56:12.859Z,16.37
2018-04-30T08:58:41.276Z,7.10
2018-04-30T09:01:08.781Z,6.60
2018-04-30T09:03:36.331Z,7.87
2018-04-30T09:06:03.864Z,4.43
2018-04-30T09:08:32.195Z,8.43
2018-04-30T09:11:00.525Z,14.27
2018-04-30T09:13:28.083Z,6.23
2018-04-30T09:15:55.720Z,11.10
2018-04-30T09:18:23.254Z,4.33
2018-04-30T09:20:51.559Z,9.97
2018-04-30T09:23:19.108Z,8.60
2018-04-30T09:25:46.607Z,5.17
2018-04-30T09:28:14.243Z,8.33
2018-04-30T09:30:41.663Z,6.73
2018-04-30T09:33:09.204Z,7.40
2018-04-30T09:35:36.726Z,4.30
2018-04-30T09:38:04.278Z,13.00
2018-04-30T09:40:31.774Z,2.80
2018-04-30T09:42:59.313Z,4.50
2018-04-30T09:45:26.810Z,3.13
2018-04-30T09:47:54.343Z,3.73
2018-04-30T09:50:21.831Z,3.27
2018-04-30T09:52:50.136Z,3.80
2018-04-30T09:55:17.628Z,3.60
2018-04-30T09:57:45.291Z,5.30
2018-04-30T10:00:12.776Z,9.23
2018-04-30T10:02:40.335Z,5.53
2018-04-30T10:05:07.885Z,4.90
2018-04-30T10:07:35.392Z,4.60
2018-04-30T10:10:02.927Z,2.77
2018-04-30T10:12:31.192Z,6.87
2018-04-30T10:14:58.726Z,2.97
2018-04-30T10:17:26.458Z,4.30
2018-04-30T10:19:53.989Z,3.37
2018-04-30T10:22:22.245Z,3.40
2018-04-30T10:24:49.786Z,3.20
2018-04-30T10:27:17.283Z,7.40
2018-04-30T10:29:44.835Z,6.17
2018-04-30T10:32:13.093Z,3.47
2018-04-30T10:34:40.643Z,1.93
2018-04-30T10:37:08.152Z,1.33
2018-04-30T10:39:35.647Z,3.60
2018-04-30T10:42:03.187Z,3.63
2018-04-30T10:44:30.698Z,2.87
2018-04-30T10:46:58.235Z,1.43
2018-04-30T10:49:25.759Z,3.37
2018-04-30T10:51:53.302Z,5.83
2018-04-30T10:54:20.854Z,5.70
2018-04-30T10:56:49.124Z,1.03
2018-04-30T10:59:17.425Z,1.90
2018-04-30T11:01:44.935Z,2.10
2018-04-30T11:04:12.485Z,1.77
2018-04-30T11:06:40.008Z,1.10
2018-04-30T11:09:07.572Z,2.03
2018-04-30T11:11:35.108Z,4.77
2018-04-30T11:14:02.874Z,3.80
2018-04-30T11:16:30.427Z,3.03
2018-04-30T11:18:58.013Z,3.50
2018-04-30T11:21:25.512Z,7.67
2018-04-30T11:23:53.076Z,2.07
2018-04-30T11:26:20.587Z,1.60
2018-04-30T11:28:48.124Z,12.13
2018-04-30T11:31:16.388Z,4.33
2018-04-30T11:33:44.683Z,1.67
2018-04-30T11:36:12.199Z,6.40
2018-04-30T11:38:39.764Z,2.23
2018-04-30T11:41:08.137Z,1.20
2018-04-30T11:43:35.696Z,3.60
2018-04-30T11:46:03.223Z,1.90
2018-04-30T11:48:30.788Z,6.10
2018-04-30T11:50:58.297Z,2.23
2018-04-30T11:53:25.905Z,1.43
2018-04-30T11:55:53.439Z,3.43
2018-04-30T11:58:20.995Z,4.30
2018-04-30T12:00:49.233Z,4.93
2018-04-30T12:03:16.744Z,1.00
2018-04-30T12:05:44.314Z,1.70
2018-04-30T12:08:11.844Z,11.40
2018-04-30T12:10:39.435Z,7.00
2018-04-30T12:13:08.119Z,3.60
2018-04-30T12:15:35.939Z,1.10
2018-04-30T12:18:03.468Z,2.80
2018-04-30T12:20:31.142Z,2.50
2018-04-30T12:22:59.534Z,6.50
2018-04-30T12:25:27.911Z,5.27
2018-04-30T12:27:55.551Z,1.20
2018-04-30T12:30:23.157Z,3.13
2018-04-30T12:32:50.709Z,1.63
2018-04-30T12:35:18.311Z,3.10
2018-04-30T12:37:45.834Z,0.70
2018-04-30T12:40:13.435Z,3.40
2018-04-30T12:42:40.991Z,1.73
2018-04-30T12:45:08.611Z,2.20
2018-04-30T12:47:36.119Z,4.60
2018-04-30T12:50:03.657Z,3.63
2018-04-30T12:52:31.674Z,1.63
2018-04-30T12:54:59.995Z,0.80
2018-04-30T12:57:27.504Z,1.10
2018-04-30T12:59:55.091Z,3.80
2018-04-30T13:02:22.653Z,1.80
2018-04-30T13:04:50.219Z,3.53
2018-04-30T13:07:18.587Z,4.43
2018-04-30T13:09:46.129Z,6.10
2018-04-30T13:12:13.707Z,1.73
2018-04-30T13:14:41.210Z,3.10
2018-04-30T13:17:08.785Z,1.20
2018-04-30T13:19:38.592Z,1.87
2018-04-30T13:22:06.172Z,1.23
2018-04-30T13:24:33.687Z,4.70
2018-04-30T13:27:01.261Z,4.97
2018-04-30T13:29:28.758Z,0.97
2018-04-30T13:31:56.291Z,3.13
2018-04-30T13:34:23.794Z,4.60
2018-04-30T13:36:51.427Z,5.30
2018-04-30T13:39:18.940Z,1.63
2018-04-30T13:41:46.459Z,1.30
2018-04-30T13:44:14.787Z,1.43
2018-04-30T13:46:42.349Z,2.80
2018-04-30T13:49:09.895Z,5.70
2018-04-30T13:51:37.448Z,1.33
2018-04-30T13:54:05.526Z,2.13
2018-04-30T13:56:33.133Z,3.73
2018-04-30T13:59:00.677Z,1.50
2018-04-30T14:01:30.263Z,3.97
2018-04-30T14:03:57.811Z,3.67
2018-04-30T14:06:25.345Z,1.07
2018-04-30T14:08:53.651Z,3.50
2018-04-30T14:11:21.182Z,2.10
2018-04-30T14:13:48.716Z,0.80
2018-04-30T14:16:16.251Z,2.13
2018-04-30T14:18:43.798Z,2.50
2018-04-30T14:21:11.512Z,1.50
2018-04-30T14:23:40.125Z,4.70
2018-04-30T14:26:07.651Z,2.03
2018-04-30T14:28:35.946Z,3.10
2018-04-30T14:31:03.486Z,1.90
2018-04-30T14:33:31.900Z,6.07
2018-04-30T14:35:59.513Z,3.77
2018-04-30T14:38:27.122Z,1.93
2018-04-30T14:40:54.636Z,5.20
2018-04-30T14:43:22.134Z,1.57
2018-04-30T14:45:49.706Z,13.53
2018-04-30T14:48:17.221Z,2.80
2018-04-30T14:50:45.550Z,2.73
2018-04-30T14:53:13.058Z,3.83
2018-04-30T14:55:40.638Z,4.23
2018-04-30T14:58:08.175Z,2.10
2018-04-30T15:00:35.729Z,4.07
2018-04-30T15:03:03.281Z,2.50
2018-04-30T15:05:30.802Z,5.40
2018-04-30T15:07:58.338Z,8.97
2018-04-30T15:10:26.644Z,1.47
2018-04-30T15:12:54.199Z,1.53
2018-04-30T15:15:21.732Z,2.57
2018-04-30T15:17:49.307Z,2.90
2018-04-30T15:20:17.100Z,1.17
2018-04-30T15:22:44.718Z,2.93
2018-04-30T15:25:12.231Z,3.60
2018-04-30T15:27:40.550Z,2.80
2018-04-30T15:30:08.078Z,3.17
2018-04-30T15:32:35.640Z,1.50
2018-04-30T15:35:03.923Z,12.37
2018-04-30T15:37:31.469Z,1.77
2018-04-30T15:39:58.973Z,8.60
2018-04-30T15:42:26.515Z,0.80
2018-04-30T15:44:54.004Z,2.23
2018-04-30T15:47:21.567Z,2.80
2018-04-30T15:49:49.073Z,3.43
2018-04-30T15:52:16.617Z,2.73
2018-04-30T15:54:44.120Z,3.07
2018-04-30T15:57:11.875Z,7.27
2018-04-30T15:59:39.512Z,4.17
2018-04-30T16:02:07.015Z,7.57
2018-04-30T16:04:35.549Z,2.90
2018-04-30T16:07:03.065Z,20.20
2018-04-30T16:09:30.608Z,7.17
2018-04-30T16:11:58.150Z,11.50
2018-04-30T16:14:26.462Z,13.30
2018-04-30T16:16:53.960Z,6.97
2018-04-30T16:19:21.588Z,10.10
2018-04-30T16:21:49.112Z,27.40
2018-04-30T16:24:16.670Z,28.87
2018-04-30T16:26:44.170Z,6.83
2018-04-30T16:29:11.911Z,3.37
2018-04-30T16:31:39.421Z,3.37
2018-04-30T16:34:06.974Z,5.50
2018-04-30T16:36:34.695Z,5.90
2018-04-30T16:39:02.189Z,9.00
2018-04-30T16:41:29.734Z,7.37
2018-04-30T16:43:57.286Z,4.30
2018-04-30T16:46:24.887Z,11.97
2018-04-30T16:48:52.413Z,18.10
2018-04-30T16:51:19.957Z,13.50
2018-04-30T16:53:47.471Z,9.20
2018-04-30T16:56:15.029Z,26.40
2018-04-30T16:58:43.302Z,12.10
2018-04-30T17:01:12.622Z,23.10
2018-04-30T17:03:40.892Z,13.23
2018-04-30T17:06:09.193Z,21.60
2018-04-30T17:08:36.699Z,16.47
2018-04-30T17:11:04.265Z,12.27
2018-04-30T17:13:31.777Z,9.13
2018-04-30T17:15:59.267Z,9.80
2018-04-30T17:18:26.805Z,12.60
2018-04-30T17:20:54.298Z,17.50
2018-04-30T17:23:21.861Z,10.83
2018-04-30T17:25:49.372Z,18.23
2018-04-30T17:28:16.913Z,16.43
2018-04-30T17:30:44.421Z,12.47
2018-04-30T17:33:11.963Z,12.93
2018-04-30T17:35:39.470Z,21.53
2018-04-30T17:38:07.774Z,16.80
2018-04-30T17:40:35.303Z,44.13
2018-04-30T17:43:02.869Z,22.43
2018-04-30T17:45:31.157Z,22.87
2018-04-30T17:47:58.823Z,40.77
2018-04-30T17:50:26.322Z,61.30
2018-04-30T17:52:53.862Z,98.37
2018-04-30T17:55:21.465Z,189.80
2018-04-30T17:57:49.038Z,122.13
2018-04-30T18:00:17.312Z,78.97
2018-04-30T18:02:45.585Z,97.80
2018-04-30T18:05:13.896Z,52.93
2018-04-30T18:07:41.463Z,81.70
2018-04-30T18:10:08.982Z,70.47
2018-04-30T18:12:36.551Z,98.20
2018-04-30T18:15:04.069Z,54.23
2018-04-30T18:17:31.614Z,61.60
2018-04-30T18:19:59.115Z,77.97
2018-04-30T18:22:26.675Z,127.43
2018-04-30T18:24:55.007Z,141.90
2018-04-30T18:27:22.550Z,164.27
2018-04-30T18:29:50.063Z,152.80
2018-04-30T18:32:17.614Z,129.93
2018-04-30T18:34:45.884Z,74.70
2018-04-30T18:37:13.422Z,72.33
2018-04-30T18:39:40.965Z,109.17
2018-04-30T18:42:08.572Z,84.97
2018-04-30T18:44:36.097Z,83.27
2018-04-30T18:47:03.678Z,140.70
2018-04-30T18:49:31.196Z,180.13
2018-04-30T18:51:58.764Z,154.80
2018-04-30T18:54:26.262Z,83.00
2018-04-30T18:56:53.801Z,68.93
2018-04-30T18:59:21.359Z,74.03
2018-04-30T19:01:48.896Z,82.93
2018-04-30T19:04:16.700Z,91.20
2018-04-30T19:06:44.229Z,106.00
2018-04-30T19:09:13.870Z,115.77
2018-04-30T19:11:41.434Z,197.03
2018-04-30T19:14:09.007Z,55.20
2018-04-30T19:16:37.407Z,36.90
2018-04-30T19:19:05.093Z,52.93
2018-04-30T19:21:32.633Z,50.80
2018-04-30T19:24:00.188Z,47.40
2018-04-30T19:26:27.705Z,18.40
2018-04-30T19:28:55.239Z,24.07
2018-04-30T19:31:22.755Z,19.00
2018-04-30T19:33:50.379Z,19.40
2018-04-30T19:36:18.727Z,25.47
2018-04-30T19:38:46.431Z,32.00
2018-04-30T19:41:13.998Z,29.37
2018-04-30T19:43:41.543Z,23.83
2018-04-30T19:46:09.051Z,40.33
2018-04-30T19:48:36.600Z,24.87
2018-04-30T19:51:04.099Z,24.30
2018-04-30T19:53:31.682Z,22.43
2018-04-30T19:55:59.192Z,18.80
2018-04-30T19:58:26.740Z,17.50
2018-04-30T20:00:55.031Z,16.43
2018-04-30T20:03:22.804Z,17.43
2018-04-30T20:05:50.402Z,19.43
2018-04-30T20:08:17.920Z,23.93
2018-04-30T20:10:45.469Z,27.97
2018-04-30T20:13:12.975Z,35.27
2018-04-30T20:15:40.531Z,43.27
2018-04-30T20:18:08.033Z,35.47
2018-04-30T20:20:36.350Z,30.90
2018-04-30T20:23:03.851Z,39.33
2018-04-30T20:25:31.395Z,35.27
2018-04-30T20:27:58.961Z,45.20
2018-04-30T20:30:27.285Z,49.03
2018-04-30T20:32:54.950Z,37.27
2018-04-30T20:35:22.568Z,36.60
2018-04-30T20:37:50.081Z,59.90
2018-04-30T20:40:17.625Z,183.93
2018-04-30T20:42:45.134Z,53.50
2018-04-30T20:45:12.751Z,31.83
2018-04-30T20:47:41.919Z,61.67
2018-04-30T20:50:11.969Z,81.73
2018-04-30T20:52:39.732Z,67.63
2018-04-30T20:55:07.271Z,61.70
2018-04-30T20:57:36.791Z,46.17
2018-04-30T21:00:04.402Z,48.70
2018-04-30T21:02:33.090Z,54.17
2018-04-30T21:05:01.871Z,59.43
2018-04-30T21:07:31.557Z,43.03
2018-04-30T21:09:59.060Z,40.80
2018-04-30T21:12:26.594Z,41.50
2018-04-30T21:14:54.096Z,38.97
2018-04-30T21:17:21.721Z,40.07
2018-04-30T21:19:49.185Z,40.17
2018-04-30T21:22:17.023Z,52.50
2018-04-30T21:24:44.600Z,45.37
2018-04-30T21:27:12.100Z,50.30
2018-04-30T21:29:39.776Z,45.07
2018-04-30T21:32:07.323Z,53.33
2018-04-30T21:34:34.853Z,49.73
2018-04-30T21:37:02.416Z,53.27
2018-04-30T21:39:29.924Z,52.60
2018-04-30T21:41:57.470Z,61.13
2018-04-30T21:44:24.985Z,58.70
2018-04-30T21:46:52.522Z,53.30
2018-04-30T21:49:20.026Z,49.87
2018-04-30T21:51:47.566Z,54.40
2018-04-30T21:54:15.839Z,61.50
2018-04-30T21:56:43.386Z,62.73
2018-04-30T21:59:10.893Z,55.40
2018-04-30T22:01:38.452Z,60.00
2018-04-30T22:04:05.943Z,56.20
2018-04-30T22:06:33.438Z,50.10
2018-04-30T22:09:00.989Z,72.27
2018-04-30T22:11:28.499Z,56.80
2018-04-30T22:13:56.042Z,52.20
2018-04-30T22:16:23.548Z,65.17
2018-04-30T22:18:51.091Z,69.93
2018-04-30T22:21:18.593Z,58.70
2018-04-30T22:23:46.126Z,389.37
2018-04-30T22:26:13.626Z,180.90
2018-04-30T22:28:41.954Z,96.40
2018-04-30T22:31:09.483Z,62.77
2018-04-30T22:33:37.041Z,64.73
2018-04-30T22:36:04.541Z,69.80
2018-04-30T22:38:32.099Z,65.07
2018-04-30T22:40:59.621Z,61.10
2018-04-30T22:43:27.189Z,58.37
2018-04-30T22:45:54.792Z,56.27
2018-04-30T22:48:23.093Z,55.77
2018-04-30T22:50:50.637Z,52.17
2018-04-30T22:53:18.900Z,46.63
2018-04-30T22:55:46.439Z,66.83
2018-04-30T22:58:13.955Z,73.80
2018-04-30T23:00:41.509Z,77.40
2018-04-30T23:03:09.020Z,70.63
2018-04-30T23:05:36.554Z,62.27
2018-04-30T23:08:04.082Z,68.00
2018-04-30T23:10:32.392Z,58.67
2018-04-30T23:12:59.887Z,62.90
2018-04-30T23:15:27.994Z,71.60
2018-04-30T23:17:56.294Z,74.70
2018-04-30T23:20:23.881Z,64.97
2018-04-30T23:22:51.466Z,62.97
2018-04-30T23:25:19.942Z,65.90
2018-04-30T23:27:47.443Z,58.50
2018-04-30T23:30:14.987Z,54.83
2018-04-30T23:32:42.586Z,63.53
2018-04-30T23:35:10.131Z,52.37
2018-04-30T23:37:37.654Z,52.20
2018-04-30T23:40:05.996Z,67.67
2018-04-30T23:42:33.597Z,71.43
2018-04-30T23:45:01.868Z,94.80
2018-04-30T23:47:30.287Z,111.53
2018-04-30T23:49:58.489Z,122.53
2018-04-30T23:52:26.018Z,89.70
2018-04-30T23:54:53.513Z,91.80
2018-04-30T23:57:21.083Z,227.23
2018-04-30T23:59:48.629Z,109.83
